sensor_id;sensor_type;location;lat;lon;timestamp;temperature;humidity
9987;DHT22;5033;46.310;11.214;2023-12-29T00:01:16;4.70;99.90
9987;DHT22;5033;46.310;11.214;2023-12-29T00:03:43;4.70;99.90
9987;DHT22;5033;46.310;11.214;2023-12-29T00:06:10;4.70;99.90
9987;DHT22;5033;46.310;11.214;2023-12-29T00:08:37;4.70;99.90
9987;DHT22;5033;46.310;11.214;2023-12-29T00:11:04;4.70;99.90
9987;DHT22;5033;46.310;11.214;2023-12-29T00:13:31;4.70;99.90
9987;DHT22;5033;46.310;11.214;2023-12-29T00:16:00;4.60;99.90
9987;DHT22;5033;46.310;11.214;2023-12-29T00:18:27;4.60;99.90
9987;DHT22;5033;46.310;11.214;2023-12-29T00:20:54;4.50;99.90
9987;DHT22;5033;46.310;11.214;2023-12-29T00:23:21;4.50;99.90
9987;DHT22;5033;46.310;11.214;2023-12-29T00:25:48;4.60;99.90
9987;DHT22;5033;46.310;11.214;2023-12-29T00:28:15;4.50;99.90
9987;DHT22;5033;46.310;11.214;2023-12-29T00:30:42;4.50;99.90
9987;DHT22;5033;46.310;11.214;2023-12-29T00:33:11;4.50;99.90
9987;DHT22;5033;46.310;11.214;2023-12-29T00:35:38;4.50;99.90
9987;DHT22;5033;46.310;11.214;2023-12-29T00:38:05;4.50;99.90
9987;DHT22;5033;46.310;11.214;2023-12-29T00:40:32;4.50;99.90
9987;DHT22;5033;46.310;11.214;2023-12-29T00:43:00;4.50;99.90
9987;DHT22;5033;46.310;11.214;2023-12-29T00:45:27;4.50;99.90
9987;DHT22;5033;46.310;11.214;2023-12-29T00:47:58;4.50;99.90
9987;DHT22;5033;46.310;11.214;2023-12-29T00:50:26;4.50;99.90
9987;DHT22;5033;46.310;11.214;2023-12-29T00:52:54;4.50;99.90
9987;DHT22;5033;46.310;11.214;2023-12-29T00:55:21;4.50;99.90
9987;DHT22;5033;46.310;11.214;2023-12-29T00:57:48;4.50;99.90
9987;DHT22;5033;46.310;11.214;2023-12-29T01:00:15;4.50;99.90
9987;DHT22;5033;46.310;11.214;2023-12-29T01:02:43;4.60;99.90
9987;DHT22;5033;46.310;11.214;2023-12-29T01:05:10;4.60;99.90
9987;DHT22;5033;46.310;11.214;2023-12-29T01:07:38;4.60;99.90
9987;DHT22;5033;46.310;11.214;2023-12-29T01:10:06;4.60;99.90
9987;DHT22;5033;46.310;11.214;2023-12-29T01:12:33;4.60;99.90
9987;DHT22;5033;46.310;11.214;2023-12-29T01:15:00;4.60;99.90
9987;DHT22;5033;46.310;11.214;2023-12-29T01:17:28;4.60;99.90
9987;DHT22;5033;46.310;11.214;2023-12-29T01:19:55;4.70;99.90
9987;DHT22;5033;46.310;11.214;2023-12-29T01:22:22;4.60;99.90
9987;DHT22;5033;46.310;11.214;2023-12-29T01:24:50;4.70;99.90
9987;DHT22;5033;46.310;11.214;2023-12-29T01:27:17;4.70;99.90
9987;DHT22;5033;46.310;11.214;2023-12-29T01:29:44;4.60;99.90
9987;DHT22;5033;46.310;11.214;2023-12-29T01:32:11;4.60;99.90
9987;DHT22;5033;46.310;11.214;2023-12-29T01:34:38;4.70;99.90
9987;DHT22;5033;46.310;11.214;2023-12-29T01:37:05;4.60;99.90
9987;DHT22;5033;46.310;11.214;2023-12-29T01:39:33;4.60;99.90
9987;DHT22;5033;46.310;11.214;2023-12-29T01:42:02;4.60;99.90
9987;DHT22;5033;46.310;11.214;2023-12-29T01:44:29;4.70;99.90
9987;DHT22;5033;46.310;11.214;2023-12-29T01:46:59;4.70;99.90
9987;DHT22;5033;46.310;11.214;2023-12-29T01:49:27;4.70;99.90
9987;DHT22;5033;46.310;11.214;2023-12-29T01:51:55;4.70;99.90
9987;DHT22;5033;46.310;11.214;2023-12-29T01:54:24;4.80;99.90
9987;DHT22;5033;46.310;11.214;2023-12-29T01:56:54;4.80;99.90
9987;DHT22;5033;46.310;11.214;2023-12-29T01:59:24;4.80;99.90
9987;DHT22;5033;46.310;11.214;2023-12-29T02:01:52;4.80;99.90
9987;DHT22;5033;46.310;11.214;2023-12-29T02:04:20;4.80;99.90
9987;DHT22;5033;46.310;11.214;2023-12-29T02:06:47;4.80;99.90
9987;DHT22;5033;46.310;11.214;2023-12-29T02:09:15;4.80;99.90
9987;DHT22;5033;46.310;11.214;2023-12-29T02:11:44;4.80;99.90
9987;DHT22;5033;46.310;11.214;2023-12-29T02:14:11;4.80;99.90
9987;DHT22;5033;46.310;11.214;2023-12-29T02:16:45;4.80;99.90
9987;DHT22;5033;46.310;11.214;2023-12-29T02:19:25;4.80;99.90
9987;DHT22;5033;46.310;11.214;2023-12-29T02:21:56;4.70;99.90
9987;DHT22;5033;46.310;11.214;2023-12-29T02:24:23;4.60;99.90
9987;DHT22;5033;46.310;11.214;2023-12-29T02:26:57;4.60;99.90
9987;DHT22;5033;46.310;11.214;2023-12-29T02:29:26;4.50;99.90
9987;DHT22;5033;46.310;11.214;2023-12-29T02:31:57;4.40;99.90
9987;DHT22;5033;46.310;11.214;2023-12-29T02:34:28;4.40;99.90
9987;DHT22;5033;46.310;11.214;2023-12-29T02:36:56;4.30;99.90
9987;DHT22;5033;46.310;11.214;2023-12-29T02:39:23;4.30;99.90
9987;DHT22;5033;46.310;11.214;2023-12-29T02:41:52;4.30;99.90
9987;DHT22;5033;46.310;11.214;2023-12-29T02:44:19;4.30;99.90
9987;DHT22;5033;46.310;11.214;2023-12-29T02:46:46;4.40;99.90
9987;DHT22;5033;46.310;11.214;2023-12-29T02:49:13;4.40;99.90
9987;DHT22;5033;46.310;11.214;2023-12-29T02:51:40;4.40;99.90
9987;DHT22;5033;46.310;11.214;2023-12-29T02:54:07;4.40;99.90
9987;DHT22;5033;46.310;11.214;2023-12-29T02:56:34;4.40;99.90
9987;DHT22;5033;46.310;11.214;2023-12-29T02:59:03;4.40;99.90
9987;DHT22;5033;46.310;11.214;2023-12-29T03:01:30;4.40;99.90
9987;DHT22;5033;46.310;11.214;2023-12-29T03:03:57;4.40;99.90
9987;DHT22;5033;46.310;11.214;2023-12-29T03:06:24;4.40;99.90
9987;DHT22;5033;46.310;11.214;2023-12-29T03:08:51;4.40;99.90
9987;DHT22;5033;46.310;11.214;2023-12-29T03:11:18;4.40;99.90
9987;DHT22;5033;46.310;11.214;2023-12-29T03:13:46;4.30;99.90
9987;DHT22;5033;46.310;11.214;2023-12-29T03:16:14;4.30;99.90
9987;DHT22;5033;46.310;11.214;2023-12-29T03:18:41;4.30;99.90
9987;DHT22;5033;46.310;11.214;2023-12-29T03:21:08;4.30;99.90
9987;DHT22;5033;46.310;11.214;2023-12-29T03:23:35;4.30;99.90
9987;DHT22;5033;46.310;11.214;2023-12-29T03:26:02;4.30;99.90
9987;DHT22;5033;46.310;11.214;2023-12-29T03:28:29;4.30;99.90
9987;DHT22;5033;46.310;11.214;2023-12-29T03:30:56;4.30;99.90
9987;DHT22;5033;46.310;11.214;2023-12-29T03:33:25;4.40;99.90
9987;DHT22;5033;46.310;11.214;2023-12-29T03:35:52;4.40;99.90
9987;DHT22;5033;46.310;11.214;2023-12-29T03:38:19;4.30;99.90
9987;DHT22;5033;46.310;11.214;2023-12-29T03:40:46;4.40;99.90
9987;DHT22;5033;46.310;11.214;2023-12-29T03:43:13;4.30;99.90
9987;DHT22;5033;46.310;11.214;2023-12-29T03:45:40;4.20;99.90
9987;DHT22;5033;46.310;11.214;2023-12-29T03:48:07;4.10;99.90
9987;DHT22;5033;46.310;11.214;2023-12-29T03:50:36;4.10;99.90
9987;DHT22;5033;46.310;11.214;2023-12-29T03:53:04;4.10;99.90
9987;DHT22;5033;46.310;11.214;2023-12-29T03:55:31;4.00;99.90
9987;DHT22;5033;46.310;11.214;2023-12-29T03:57:58;4.00;99.90
9987;DHT22;5033;46.310;11.214;2023-12-29T04:00:26;4.00;99.90
9987;DHT22;5033;46.310;11.214;2023-12-29T04:02:53;4.00;99.90
9987;DHT22;5033;46.310;11.214;2023-12-29T04:05:20;4.10;99.90
9987;DHT22;5033;46.310;11.214;2023-12-29T04:07:48;4.10;99.90
9987;DHT22;5033;46.310;11.214;2023-12-29T04:10:15;4.10;99.90
9987;DHT22;5033;46.310;11.214;2023-12-29T04:12:42;4.10;99.90
9987;DHT22;5033;46.310;11.214;2023-12-29T04:15:11;4.20;99.90
9987;DHT22;5033;46.310;11.214;2023-12-29T04:17:38;4.20;99.90
9987;DHT22;5033;46.310;11.214;2023-12-29T04:20:06;4.30;99.90
9987;DHT22;5033;46.310;11.214;2023-12-29T04:22:33;4.30;99.90
9987;DHT22;5033;46.310;11.214;2023-12-29T04:25:02;4.30;99.90
9987;DHT22;5033;46.310;11.214;2023-12-29T04:27:29;4.30;99.90
9987;DHT22;5033;46.310;11.214;2023-12-29T04:29:56;4.40;99.90
9987;DHT22;5033;46.310;11.214;2023-12-29T04:32:23;4.40;99.90
9987;DHT22;5033;46.310;11.214;2023-12-29T04:34:50;4.40;99.90
9987;DHT22;5033;46.310;11.214;2023-12-29T04:37:17;4.40;99.90
9987;DHT22;5033;46.310;11.214;2023-12-29T04:39:44;4.40;99.90
9987;DHT22;5033;46.310;11.214;2023-12-29T04:42:12;4.40;99.90
9987;DHT22;5033;46.310;11.214;2023-12-29T04:44:39;4.40;99.90
9987;DHT22;5033;46.310;11.214;2023-12-29T04:47:07;4.40;99.90
9987;DHT22;5033;46.310;11.214;2023-12-29T04:49:34;4.40;99.90
9987;DHT22;5033;46.310;11.214;2023-12-29T04:52:01;4.40;99.90
9987;DHT22;5033;46.310;11.214;2023-12-29T04:54:28;4.30;99.90
9987;DHT22;5033;46.310;11.214;2023-12-29T04:56:55;4.40;99.90
9987;DHT22;5033;46.310;11.214;2023-12-29T04:59:23;4.40;99.90
9987;DHT22;5033;46.310;11.214;2023-12-29T05:01:50;4.40;99.90
9987;DHT22;5033;46.310;11.214;2023-12-29T05:04:17;4.40;99.90
9987;DHT22;5033;46.310;11.214;2023-12-29T05:06:44;4.40;99.90
9987;DHT22;5033;46.310;11.214;2023-12-29T05:09:11;4.40;99.90
9987;DHT22;5033;46.310;11.214;2023-12-29T05:11:39;4.30;99.90
9987;DHT22;5033;46.310;11.214;2023-12-29T05:14:06;4.30;99.90
9987;DHT22;5033;46.310;11.214;2023-12-29T05:16:35;4.30;99.90
9987;DHT22;5033;46.310;11.214;2023-12-29T05:19:02;4.30;99.90
9987;DHT22;5033;46.310;11.214;2023-12-29T05:21:29;4.30;99.90
9987;DHT22;5033;46.310;11.214;2023-12-29T05:23:56;4.30;99.90
9987;DHT22;5033;46.310;11.214;2023-12-29T05:26:23;4.30;99.90
9987;DHT22;5033;46.310;11.214;2023-12-29T05:28:50;4.20;99.90
9987;DHT22;5033;46.310;11.214;2023-12-29T05:31:18;4.20;99.90
9987;DHT22;5033;46.310;11.214;2023-12-29T05:33:46;4.20;99.90
9987;DHT22;5033;46.310;11.214;2023-12-29T05:36:13;4.20;99.90
9987;DHT22;5033;46.310;11.214;2023-12-29T05:38:42;4.20;99.90
9987;DHT22;5033;46.310;11.214;2023-12-29T05:41:13;4.20;99.90
9987;DHT22;5033;46.310;11.214;2023-12-29T05:43:40;4.20;99.90
9987;DHT22;5033;46.310;11.214;2023-12-29T05:46:09;4.20;99.90
9987;DHT22;5033;46.310;11.214;2023-12-29T05:48:37;4.20;99.90
9987;DHT22;5033;46.310;11.214;2023-12-29T05:51:08;4.30;99.90
9987;DHT22;5033;46.310;11.214;2023-12-29T05:53:35;4.30;99.90
9987;DHT22;5033;46.310;11.214;2023-12-29T05:56:03;4.30;99.90
9987;DHT22;5033;46.310;11.214;2023-12-29T05:58:30;4.30;99.90
9987;DHT22;5033;46.310;11.214;2023-12-29T06:00:57;4.40;99.90
9987;DHT22;5033;46.310;11.214;2023-12-29T06:03:26;4.30;99.90
9987;DHT22;5033;46.310;11.214;2023-12-29T06:05:53;4.30;99.90
9987;DHT22;5033;46.310;11.214;2023-12-29T06:08:22;4.30;99.90
9987;DHT22;5033;46.310;11.214;2023-12-29T06:10:49;4.30;99.90
9987;DHT22;5033;46.310;11.214;2023-12-29T06:13:16;4.30;99.90
9987;DHT22;5033;46.310;11.214;2023-12-29T06:15:43;4.30;99.90
9987;DHT22;5033;46.310;11.214;2023-12-29T06:18:11;4.30;99.90
9987;DHT22;5033;46.310;11.214;2023-12-29T06:20:38;4.30;99.90
9987;DHT22;5033;46.310;11.214;2023-12-29T06:23:05;4.30;99.90
9987;DHT22;5033;46.310;11.214;2023-12-29T06:25:33;4.30;99.90
9987;DHT22;5033;46.310;11.214;2023-12-29T06:28:01;4.30;99.90
9987;DHT22;5033;46.310;11.214;2023-12-29T06:30:29;4.30;99.90
9987;DHT22;5033;46.310;11.214;2023-12-29T06:32:56;4.30;99.90
9987;DHT22;5033;46.310;11.214;2023-12-29T06:35:23;4.30;99.90
9987;DHT22;5033;46.310;11.214;2023-12-29T06:37:50;4.30;99.90
9987;DHT22;5033;46.310;11.214;2023-12-29T06:40:18;4.30;99.90
9987;DHT22;5033;46.310;11.214;2023-12-29T06:42:46;4.30;99.90
9987;DHT22;5033;46.310;11.214;2023-12-29T06:45:13;4.30;99.90
9987;DHT22;5033;46.310;11.214;2023-12-29T06:47:41;4.30;99.90
9987;DHT22;5033;46.310;11.214;2023-12-29T06:50:08;4.30;99.90
9987;DHT22;5033;46.310;11.214;2023-12-29T06:52:38;4.40;99.90
9987;DHT22;5033;46.310;11.214;2023-12-29T06:55:06;4.40;99.90
9987;DHT22;5033;46.310;11.214;2023-12-29T06:57:34;4.40;99.90
9987;DHT22;5033;46.310;11.214;2023-12-29T07:00:03;4.50;99.90
9987;DHT22;5033;46.310;11.214;2023-12-29T07:02:30;4.50;99.90
9987;DHT22;5033;46.310;11.214;2023-12-29T07:04:58;4.50;99.90
9987;DHT22;5033;46.310;11.214;2023-12-29T07:07:25;4.50;99.90
9987;DHT22;5033;46.310;11.214;2023-12-29T07:09:51;4.60;99.90
9987;DHT22;5033;46.310;11.214;2023-12-29T07:12:18;4.60;99.90
9987;DHT22;5033;46.310;11.214;2023-12-29T07:14:45;4.60;99.90
9987;DHT22;5033;46.310;11.214;2023-12-29T07:17:14;4.70;99.90
9987;DHT22;5033;46.310;11.214;2023-12-29T07:19:49;4.70;99.90
9987;DHT22;5033;46.310;11.214;2023-12-29T07:22:21;4.70;99.90
9987;DHT22;5033;46.310;11.214;2023-12-29T07:24:51;4.70;99.90
9987;DHT22;5033;46.310;11.214;2023-12-29T07:27:32;4.70;99.90
9987;DHT22;5033;46.310;11.214;2023-12-29T07:30:03;4.80;99.90
9987;DHT22;5033;46.310;11.214;2023-12-29T07:32:32;4.80;99.90
9987;DHT22;5033;46.310;11.214;2023-12-29T07:35:03;4.80;99.90
9987;DHT22;5033;46.310;11.214;2023-12-29T07:37:34;4.80;99.90
9987;DHT22;5033;46.310;11.214;2023-12-29T07:40:05;4.90;99.90
9987;DHT22;5033;46.310;11.214;2023-12-29T07:42:33;4.90;99.90
9987;DHT22;5033;46.310;11.214;2023-12-29T07:45:00;5.00;99.90
9987;DHT22;5033;46.310;11.214;2023-12-29T07:47:28;5.00;99.90
9987;DHT22;5033;46.310;11.214;2023-12-29T07:49:56;5.00;99.90
9987;DHT22;5033;46.310;11.214;2023-12-29T07:52:23;5.00;99.90
9987;DHT22;5033;46.310;11.214;2023-12-29T07:54:50;5.00;99.90
9987;DHT22;5033;46.310;11.214;2023-12-29T07:57:17;5.10;99.90
9987;DHT22;5033;46.310;11.214;2023-12-29T07:59:45;5.20;99.90
9987;DHT22;5033;46.310;11.214;2023-12-29T08:02:12;5.20;99.90
9987;DHT22;5033;46.310;11.214;2023-12-29T08:04:39;5.20;99.90
9987;DHT22;5033;46.310;11.214;2023-12-29T08:07:07;5.10;99.90
9987;DHT22;5033;46.310;11.214;2023-12-29T08:09:35;5.10;99.90
9987;DHT22;5033;46.310;11.214;2023-12-29T08:12:02;5.20;99.90
9987;DHT22;5033;46.310;11.214;2023-12-29T08:14:30;5.20;99.90
9987;DHT22;5033;46.310;11.214;2023-12-29T08:16:58;5.20;99.90
9987;DHT22;5033;46.310;11.214;2023-12-29T08:19:25;5.30;99.90
9987;DHT22;5033;46.310;11.214;2023-12-29T08:21:53;5.40;99.90
9987;DHT22;5033;46.310;11.214;2023-12-29T08:24:21;5.40;99.90
9987;DHT22;5033;46.310;11.214;2023-12-29T08:26:48;5.50;99.90
9987;DHT22;5033;46.310;11.214;2023-12-29T08:29:15;5.50;99.90
9987;DHT22;5033;46.310;11.214;2023-12-29T08:31:44;5.50;99.90
9987;DHT22;5033;46.310;11.214;2023-12-29T08:34:11;5.50;99.90
9987;DHT22;5033;46.310;11.214;2023-12-29T08:36:39;5.50;99.90
9987;DHT22;5033;46.310;11.214;2023-12-29T08:39:06;5.50;99.90
9987;DHT22;5033;46.310;11.214;2023-12-29T08:41:34;5.50;99.90
9987;DHT22;5033;46.310;11.214;2023-12-29T08:44:01;5.50;99.90
9987;DHT22;5033;46.310;11.214;2023-12-29T08:46:29;5.50;99.90
9987;DHT22;5033;46.310;11.214;2023-12-29T08:48:56;5.50;99.90
9987;DHT22;5033;46.310;11.214;2023-12-29T08:51:23;5.50;99.90
9987;DHT22;5033;46.310;11.214;2023-12-29T08:53:50;5.50;99.90
9987;DHT22;5033;46.310;11.214;2023-12-29T08:56:17;5.50;99.90
9987;DHT22;5033;46.310;11.214;2023-12-29T08:58:46;5.50;99.90
9987;DHT22;5033;46.310;11.214;2023-12-29T09:01:13;5.50;99.90
9987;DHT22;5033;46.310;11.214;2023-12-29T09:03:40;5.50;99.90
9987;DHT22;5033;46.310;11.214;2023-12-29T09:06:08;5.50;99.90
9987;DHT22;5033;46.310;11.214;2023-12-29T09:08:35;5.50;99.90
9987;DHT22;5033;46.310;11.214;2023-12-29T09:11:03;5.50;99.90
9987;DHT22;5033;46.310;11.214;2023-12-29T09:13:31;5.50;99.90
9987;DHT22;5033;46.310;11.214;2023-12-29T09:15:59;5.50;99.90
9987;DHT22;5033;46.310;11.214;2023-12-29T09:18:26;5.50;99.90
9987;DHT22;5033;46.310;11.214;2023-12-29T09:20:53;5.50;99.90
9987;DHT22;5033;46.310;11.214;2023-12-29T09:23:20;5.50;99.90
9987;DHT22;5033;46.310;11.214;2023-12-29T09:25:47;5.60;99.90
9987;DHT22;5033;46.310;11.214;2023-12-29T09:28:14;5.70;99.90
9987;DHT22;5033;46.310;11.214;2023-12-29T09:30:41;5.70;99.90
9987;DHT22;5033;46.310;11.214;2023-12-29T09:33:10;5.80;99.90
9987;DHT22;5033;46.310;11.214;2023-12-29T09:35:38;5.90;99.90
9987;DHT22;5033;46.310;11.214;2023-12-29T09:38:05;5.90;99.90
9987;DHT22;5033;46.310;11.214;2023-12-29T09:40:32;6.00;99.90
9987;DHT22;5033;46.310;11.214;2023-12-29T09:43:01;6.00;99.90
9987;DHT22;5033;46.310;11.214;2023-12-29T09:45:30;6.00;99.90
9987;DHT22;5033;46.310;11.214;2023-12-29T09:48:01;5.90;99.90
9987;DHT22;5033;46.310;11.214;2023-12-29T09:50:31;5.90;99.90
9987;DHT22;5033;46.310;11.214;2023-12-29T09:53:00;5.90;99.90
9987;DHT22;5033;46.310;11.214;2023-12-29T09:55:28;6.00;99.90
9987;DHT22;5033;46.310;11.214;2023-12-29T09:57:57;6.00;99.90
9987;DHT22;5033;46.310;11.214;2023-12-29T10:00:25;6.10;99.90
9987;DHT22;5033;46.310;11.214;2023-12-29T10:02:54;6.20;99.90
9987;DHT22;5033;46.310;11.214;2023-12-29T10:05:21;6.20;99.90
9987;DHT22;5033;46.310;11.214;2023-12-29T10:07:50;6.20;99.90
9987;DHT22;5033;46.310;11.214;2023-12-29T10:10:20;6.20;99.90
9987;DHT22;5033;46.310;11.214;2023-12-29T10:12:49;6.20;99.90
9987;DHT22;5033;46.310;11.214;2023-12-29T10:15:21;6.30;99.90
9987;DHT22;5033;46.310;11.214;2023-12-29T10:18:13;6.30;99.90
9987;DHT22;5033;46.310;11.214;2023-12-29T10:20:45;6.40;99.90
9987;DHT22;5033;46.310;11.214;2023-12-29T10:23:22;6.40;99.90
9987;DHT22;5033;46.310;11.214;2023-12-29T10:25:50;6.40;99.90
9987;DHT22;5033;46.310;11.214;2023-12-29T10:28:17;6.40;99.90
9987;DHT22;5033;46.310;11.214;2023-12-29T10:30:44;6.50;99.90
9987;DHT22;5033;46.310;11.214;2023-12-29T10:33:19;6.50;99.90
9987;DHT22;5033;46.310;11.214;2023-12-29T10:35:56;6.60;99.90
9987;DHT22;5033;46.310;11.214;2023-12-29T10:38:25;6.70;99.90
9987;DHT22;5033;46.310;11.214;2023-12-29T10:40:53;6.70;99.90
9987;DHT22;5033;46.310;11.214;2023-12-29T10:43:22;6.80;99.90
9987;DHT22;5033;46.310;11.214;2023-12-29T10:45:51;6.80;99.90
9987;DHT22;5033;46.310;11.214;2023-12-29T10:48:32;6.90;99.90
9987;DHT22;5033;46.310;11.214;2023-12-29T10:50:59;6.80;99.90
9987;DHT22;5033;46.310;11.214;2023-12-29T10:53:29;6.70;99.90
9987;DHT22;5033;46.310;11.214;2023-12-29T10:55:56;6.70;99.90
9987;DHT22;5033;46.310;11.214;2023-12-29T10:58:24;6.70;99.90
9987;DHT22;5033;46.310;11.214;2023-12-29T11:00:53;6.70;99.90
9987;DHT22;5033;46.310;11.214;2023-12-29T11:03:21;6.70;99.90
9987;DHT22;5033;46.310;11.214;2023-12-29T11:05:48;6.80;99.90
9987;DHT22;5033;46.310;11.214;2023-12-29T11:08:18;6.80;99.90
9987;DHT22;5033;46.310;11.214;2023-12-29T11:10:48;6.90;99.90
9987;DHT22;5033;46.310;11.214;2023-12-29T11:13:16;6.90;99.90
9987;DHT22;5033;46.310;11.214;2023-12-29T11:15:43;6.90;99.90
9987;DHT22;5033;46.310;11.214;2023-12-29T11:18:13;6.70;99.90
9987;DHT22;5033;46.310;11.214;2023-12-29T11:20:41;6.50;99.90
9987;DHT22;5033;46.310;11.214;2023-12-29T11:23:09;6.50;99.90
9987;DHT22;5033;46.310;11.214;2023-12-29T11:25:37;6.50;99.90
9987;DHT22;5033;46.310;11.214;2023-12-29T11:28:08;6.60;99.90
9987;DHT22;5033;46.310;11.214;2023-12-29T11:30:36;6.70;99.90
9987;DHT22;5033;46.310;11.214;2023-12-29T11:33:10;6.70;99.90
9987;DHT22;5033;46.310;11.214;2023-12-29T11:35:43;6.80;99.90
9987;DHT22;5033;46.310;11.214;2023-12-29T11:38:41;6.90;99.90
9987;DHT22;5033;46.310;11.214;2023-12-29T11:41:17;6.90;99.90
9987;DHT22;5033;46.310;11.214;2023-12-29T11:43:56;7.00;99.90
9987;DHT22;5033;46.310;11.214;2023-12-29T11:46:36;7.00;99.90
9987;DHT22;5033;46.310;11.214;2023-12-29T11:49:04;7.00;99.90
9987;DHT22;5033;46.310;11.214;2023-12-29T11:51:32;7.00;99.90
9987;DHT22;5033;46.310;11.214;2023-12-29T11:54:00;7.00;99.90
9987;DHT22;5033;46.310;11.214;2023-12-29T11:56:33;6.90;99.90
9987;DHT22;5033;46.310;11.214;2023-12-29T11:59:17;6.80;99.90
9987;DHT22;5033;46.310;11.214;2023-12-29T12:01:46;6.90;99.90
9987;DHT22;5033;46.310;11.214;2023-12-29T12:04:36;7.00;99.90
9987;DHT22;5033;46.310;11.214;2023-12-29T12:07:05;7.10;99.90
9987;DHT22;5033;46.310;11.214;2023-12-29T12:09:33;7.30;99.90
9987;DHT22;5033;46.310;11.214;2023-12-29T12:12:01;7.30;99.90
9987;DHT22;5033;46.310;11.214;2023-12-29T12:14:50;7.20;99.90
9987;DHT22;5033;46.310;11.214;2023-12-29T12:17:30;7.10;99.90
9987;DHT22;5033;46.310;11.214;2023-12-29T12:19:59;7.00;99.90
9987;DHT22;5033;46.310;11.214;2023-12-29T12:22:30;7.10;99.90
9987;DHT22;5033;46.310;11.214;2023-12-29T12:24:58;7.10;99.90
9987;DHT22;5033;46.310;11.214;2023-12-29T12:27:26;7.10;99.90
9987;DHT22;5033;46.310;11.214;2023-12-29T12:29:59;7.10;99.90
9987;DHT22;5033;46.310;11.214;2023-12-29T12:32:26;7.10;99.90
9987;DHT22;5033;46.310;11.214;2023-12-29T12:34:53;7.10;99.90
9987;DHT22;5033;46.310;11.214;2023-12-29T12:37:21;7.10;99.90
9987;DHT22;5033;46.310;11.214;2023-12-29T12:39:49;7.00;99.90
9987;DHT22;5033;46.310;11.214;2023-12-29T12:42:16;7.00;99.90
9987;DHT22;5033;46.310;11.214;2023-12-29T12:44:49;7.00;99.90
9987;DHT22;5033;46.310;11.214;2023-12-29T12:47:25;7.00;99.90
9987;DHT22;5033;46.310;11.214;2023-12-29T12:49:53;7.00;99.90
9987;DHT22;5033;46.310;11.214;2023-12-29T12:52:20;7.00;99.90
9987;DHT22;5033;46.310;11.214;2023-12-29T12:54:47;7.00;99.90
9987;DHT22;5033;46.310;11.214;2023-12-29T12:57:19;7.00;99.90
9987;DHT22;5033;46.310;11.214;2023-12-29T12:59:47;7.00;99.90
9987;DHT22;5033;46.310;11.214;2023-12-29T13:02:15;7.00;99.90
9987;DHT22;5033;46.310;11.214;2023-12-29T13:04:43;6.90;99.90
9987;DHT22;5033;46.310;11.214;2023-12-29T13:07:10;6.90;99.90
9987;DHT22;5033;46.310;11.214;2023-12-29T13:09:41;7.00;99.90
9987;DHT22;5033;46.310;11.214;2023-12-29T13:12:09;7.00;99.90
9987;DHT22;5033;46.310;11.214;2023-12-29T13:14:36;7.00;99.90
9987;DHT22;5033;46.310;11.214;2023-12-29T13:17:08;7.00;99.90
9987;DHT22;5033;46.310;11.214;2023-12-29T13:19:36;7.10;99.90
9987;DHT22;5033;46.310;11.214;2023-12-29T13:22:07;7.10;99.90
9987;DHT22;5033;46.310;11.214;2023-12-29T13:24:35;7.10;99.90
9987;DHT22;5033;46.310;11.214;2023-12-29T13:27:05;7.10;99.90
9987;DHT22;5033;46.310;11.214;2023-12-29T13:29:34;7.10;99.90
9987;DHT22;5033;46.310;11.214;2023-12-29T13:32:05;7.20;99.90
9987;DHT22;5033;46.310;11.214;2023-12-29T13:34:37;7.30;99.90
9987;DHT22;5033;46.310;11.214;2023-12-29T13:37:13;7.40;99.90
9987;DHT22;5033;46.310;11.214;2023-12-29T13:39:47;7.30;99.90
9987;DHT22;5033;46.310;11.214;2023-12-29T13:42:19;7.30;99.90
9987;DHT22;5033;46.310;11.214;2023-12-29T13:44:50;7.50;99.90
9987;DHT22;5033;46.310;11.214;2023-12-29T13:47:17;7.50;99.90
9987;DHT22;5033;46.310;11.214;2023-12-29T13:49:46;7.50;99.90
9987;DHT22;5033;46.310;11.214;2023-12-29T13:52:15;7.50;99.90
9987;DHT22;5033;46.310;11.214;2023-12-29T13:54:44;7.50;99.90
9987;DHT22;5033;46.310;11.214;2023-12-29T13:57:11;7.50;99.90
9987;DHT22;5033;46.310;11.214;2023-12-29T13:59:38;7.50;99.90
9987;DHT22;5033;46.310;11.214;2023-12-29T14:02:27;7.50;99.90
9987;DHT22;5033;46.310;11.214;2023-12-29T14:05:15;7.50;99.90
9987;DHT22;5033;46.310;11.214;2023-12-29T14:07:51;7.50;99.90
9987;DHT22;5033;46.310;11.214;2023-12-29T14:10:19;7.60;99.90
9987;DHT22;5033;46.310;11.214;2023-12-29T14:12:46;7.60;99.90
9987;DHT22;5033;46.310;11.214;2023-12-29T14:15:13;7.60;99.90
9987;DHT22;5033;46.310;11.214;2023-12-29T14:17:40;7.60;99.90
9987;DHT22;5033;46.310;11.214;2023-12-29T14:20:08;7.60;99.90
9987;DHT22;5033;46.310;11.214;2023-12-29T14:22:35;7.60;99.90
9987;DHT22;5033;46.310;11.214;2023-12-29T14:25:05;7.60;99.90
9987;DHT22;5033;46.310;11.214;2023-12-29T14:27:33;7.50;99.90
9987;DHT22;5033;46.310;11.214;2023-12-29T14:30:00;7.50;99.90
9987;DHT22;5033;46.310;11.214;2023-12-29T14:32:27;7.40;99.90
9987;DHT22;5033;46.310;11.214;2023-12-29T14:34:56;7.40;99.90
9987;DHT22;5033;46.310;11.214;2023-12-29T14:37:23;7.40;99.90
9987;DHT22;5033;46.310;11.214;2023-12-29T14:39:51;7.40;99.90
9987;DHT22;5033;46.310;11.214;2023-12-29T14:42:20;7.40;99.90
9987;DHT22;5033;46.310;11.214;2023-12-29T14:44:48;7.40;99.90
9987;DHT22;5033;46.310;11.214;2023-12-29T14:47:16;7.30;99.90
9987;DHT22;5033;46.310;11.214;2023-12-29T14:49:43;7.30;99.90
9987;DHT22;5033;46.310;11.214;2023-12-29T14:52:10;7.30;99.90
9987;DHT22;5033;46.310;11.214;2023-12-29T14:54:38;7.20;99.90
9987;DHT22;5033;46.310;11.214;2023-12-29T14:57:06;7.20;99.90
9987;DHT22;5033;46.310;11.214;2023-12-29T14:59:35;7.10;99.90
9987;DHT22;5033;46.310;11.214;2023-12-29T15:02:03;7.10;99.90
9987;DHT22;5033;46.310;11.214;2023-12-29T15:04:33;7.00;99.90
9987;DHT22;5033;46.310;11.214;2023-12-29T15:07:00;6.90;99.90
9987;DHT22;5033;46.310;11.214;2023-12-29T15:09:27;6.80;99.90
9987;DHT22;5033;46.310;11.214;2023-12-29T15:11:55;6.80;99.90
9987;DHT22;5033;46.310;11.214;2023-12-29T15:14:22;6.70;99.90
9987;DHT22;5033;46.310;11.214;2023-12-29T15:16:51;6.60;99.90
9987;DHT22;5033;46.310;11.214;2023-12-29T15:19:18;6.50;99.90
9987;DHT22;5033;46.310;11.214;2023-12-29T15:21:46;6.40;99.90
9987;DHT22;5033;46.310;11.214;2023-12-29T15:24:13;6.30;99.90
9987;DHT22;5033;46.310;11.214;2023-12-29T15:26:40;6.30;99.90
9987;DHT22;5033;46.310;11.214;2023-12-29T15:29:07;6.40;99.90
9987;DHT22;5033;46.310;11.214;2023-12-29T15:31:36;6.40;99.90
9987;DHT22;5033;46.310;11.214;2023-12-29T15:34:04;6.40;99.90
9987;DHT22;5033;46.310;11.214;2023-12-29T15:36:31;6.50;99.90
9987;DHT22;5033;46.310;11.214;2023-12-29T15:38:59;6.50;99.90
9987;DHT22;5033;46.310;11.214;2023-12-29T15:41:26;6.50;99.90
9987;DHT22;5033;46.310;11.214;2023-12-29T15:43:54;6.50;99.90
9987;DHT22;5033;46.310;11.214;2023-12-29T15:46:21;6.60;99.90
9987;DHT22;5033;46.310;11.214;2023-12-29T15:48:48;6.60;99.90
9987;DHT22;5033;46.310;11.214;2023-12-29T15:51:16;6.60;99.90
9987;DHT22;5033;46.310;11.214;2023-12-29T15:53:44;6.60;99.90
9987;DHT22;5033;46.310;11.214;2023-12-29T15:56:16;6.60;99.90
9987;DHT22;5033;46.310;11.214;2023-12-29T15:58:44;6.60;99.90
9987;DHT22;5033;46.310;11.214;2023-12-29T16:01:20;6.60;99.90
9987;DHT22;5033;46.310;11.214;2023-12-29T16:03:49;6.70;99.90
9987;DHT22;5033;46.310;11.214;2023-12-29T16:06:21;6.70;99.90
9987;DHT22;5033;46.310;11.214;2023-12-29T16:08:48;6.70;99.90
9987;DHT22;5033;46.310;11.214;2023-12-29T16:11:21;6.60;99.90